createdAt,value
2022-08-22T00:00:30.950Z,76.51
2022-08-22T00:02:53.826Z,76.22
2022-08-22T00:02:55.438Z,76.56
2022-08-22T00:02:55.670Z,77.13
2022-08-22T00:03:01.687Z,75.65
2022-08-22T00:03:02.026Z,76.94
2022-08-22T00:03:27.131Z,76.38
2022-08-22T00:06:16.429Z,76.13
2022-08-22T00:09:02.775Z,76.63
2022-08-22T00:11:47.582Z,76.48
2022-08-22T00:14:33.661Z,76.54
2022-08-22T00:17:14.514Z,76.54
2022-08-22T00:19:55.512Z,76.74
2022-08-22T00:22:44.814Z,77.09
2022-08-22T00:25:45.557Z,76.56
2022-08-22T00:28:21.421Z,76.59
2022-08-22T00:30:58.892Z,76.92
2022-08-22T00:33:46.422Z,77.60
2022-08-22T00:36:26.361Z,77.31
2022-08-22T00:39:08.850Z,77.17
2022-08-22T00:42:30.307Z,76.59
2022-08-22T00:45:59.868Z,77.45
2022-08-22T00:49:15.515Z,77.64
2022-08-22T00:52:23.027Z,77.32
2022-08-22T00:55:21.793Z,77.38
2022-08-22T00:58:15.290Z,76.58
2022-08-22T01:00:53.074Z,76.21
2022-08-22T01:04:03.283Z,76.35
2022-08-22T01:06:53.828Z,77.30
2022-08-22T01:09:48.214Z,77.60
2022-08-22T01:12:47.176Z,77.94
2022-08-22T01:15:25.234Z,77.62
2022-08-22T01:18:40.859Z,77.59
2022-08-22T01:22:01.217Z,77.00
2022-08-22T01:25:26.063Z,77.14
2022-08-22T01:28:44.073Z,77.44
2022-08-22T01:32:14.943Z,78.18
2022-08-22T01:35:30.419Z,78.55
2022-08-22T01:38:49.186Z,78.36
2022-08-22T01:42:04.218Z,78.35
2022-08-22T01:45:13.122Z,77.88
2022-08-22T01:47:54.255Z,77.79
2022-08-22T01:50:32.647Z,77.75
2022-08-22T01:53:09.192Z,77.84
2022-08-22T01:55:58.212Z,78.07
2022-08-22T01:58:33.335Z,78.66
2022-08-22T02:01:24.560Z,79.07
2022-08-22T02:04:04.932Z,78.89
2022-08-22T02:06:46.960Z,78.83
2022-08-22T02:09:37.437Z,78.57
2022-08-22T02:12:28.278Z,78.49
2022-08-22T02:15:16.853Z,78.39
2022-08-22T02:18:16.882Z,78.25
2022-08-22T02:21:17.767Z,78.28
2022-08-22T02:23:56.996Z,78.64
2022-08-22T02:26:40.401Z,78.74
2022-08-22T02:29:17.102Z,79.00
2022-08-22T02:31:55.405Z,79.15
2022-08-22T02:34:40.037Z,78.43
2022-08-22T02:37:17.555Z,79.09
2022-08-22T02:39:55.118Z,79.28
2022-08-22T02:42:35.025Z,79.09
2022-08-22T02:45:20.125Z,78.91
2022-08-22T02:48:05.582Z,79.12
2022-08-22T02:50:47.882Z,79.55
2022-08-22T02:53:23.217Z,79.81
2022-08-22T02:56:02.202Z,79.82
2022-08-22T02:58:45.895Z,79.67
2022-08-22T03:01:40.792Z,79.77
2022-08-22T03:04:47.669Z,79.19
2022-08-22T03:07:37.727Z,79.27
2022-08-22T03:10:22.027Z,79.51
2022-08-22T03:13:08.009Z,79.86
2022-08-22T03:15:55.185Z,79.75
2022-08-22T03:18:35.275Z,79.63
2022-08-22T03:21:19.764Z,79.38
2022-08-22T03:23:57.502Z,79.63
2022-08-22T03:26:36.463Z,80.00
2022-08-22T03:29:14.074Z,79.74
2022-08-22T03:32:09.833Z,79.92
2022-08-22T03:34:40.317Z,79.96
2022-08-22T03:37:22.132Z,80.30
2022-08-22T03:40:03.862Z,80.01
2022-08-22T03:42:59.832Z,79.86
2022-08-22T03:46:13.854Z,80.53
2022-08-22T03:49:35.873Z,80.30
2022-08-22T03:52:32.480Z,79.99
2022-08-22T03:55:26.672Z,79.98
2022-08-22T03:58:40.779Z,79.57
2022-08-22T04:02:03.152Z,79.97
2022-08-22T04:05:43.797Z,80.15
2022-08-22T04:08:50.972Z,80.39
2022-08-22T04:12:07.009Z,80.50
2022-08-22T04:15:26.070Z,80.44
2022-08-22T04:18:25.856Z,80.73
2022-08-22T04:21:59.919Z,80.47
2022-08-22T04:25:04.628Z,80.36
2022-08-22T04:27:46.757Z,80.30
2022-08-22T04:30:30.224Z,80.21
2022-08-22T04:33:10.110Z,80.42
2022-08-22T04:35:47.530Z,80.74
2022-08-22T04:38:30.709Z,81.14
2022-08-22T04:41:10.579Z,80.86
2022-08-22T04:43:49.767Z,80.70
2022-08-22T04:46:36.942Z,81.19
2022-08-22T04:49:16.216Z,81.02
2022-08-22T04:51:55.184Z,81.26
2022-08-22T04:54:45.089Z,80.97
2022-08-22T04:57:29.258Z,81.01
2022-08-22T05:00:03.316Z,81.22
2022-08-22T05:02:32.135Z,81.51
2022-08-22T05:05:13.533Z,81.47
2022-08-22T05:07:53.830Z,81.40
2022-08-22T05:10:27.837Z,81.53
2022-08-22T05:13:04.045Z,81.47
2022-08-22T05:15:37.957Z,81.63
2022-08-22T05:18:14.005Z,81.66
2022-08-22T05:20:50.920Z,81.87
2022-08-22T05:23:28.552Z,81.75
2022-08-22T05:26:03.826Z,81.56
2022-08-22T05:28:39.785Z,81.24
2022-08-22T05:31:14.862Z,81.29
2022-08-22T05:33:49.854Z,81.49
2022-08-22T05:36:25.668Z,81.23
2022-08-22T05:39:00.485Z,81.26
2022-08-22T05:41:35.670Z,81.35
2022-08-22T05:44:06.003Z,81.54
2022-08-22T05:46:44.721Z,82.06
2022-08-22T05:49:22.043Z,81.71
2022-08-22T05:52:08.909Z,81.79
2022-08-22T05:54:52.706Z,81.80
2022-08-22T05:57:31.598Z,81.99
2022-08-22T06:00:07.754Z,81.82
2022-08-22T06:03:00.599Z,82.33
2022-08-22T06:05:38.979Z,83.45
2022-08-22T06:08:18.749Z,82.69
2022-08-22T06:10:53.805Z,82.96
2022-08-22T06:13:32.326Z,82.77
2022-08-22T06:16:16.969Z,82.44
2022-08-22T06:18:47.269Z,82.18
2022-08-22T06:21:30.591Z,81.96
2022-08-22T06:24:09.777Z,82.52
2022-08-22T06:26:48.217Z,82.18
2022-08-22T06:29:29.711Z,82.07
2022-08-22T06:32:03.274Z,82.43
2022-08-22T06:34:38.916Z,82.18
2022-08-22T06:37:17.265Z,81.73
2022-08-22T06:39:54.714Z,82.17
2022-08-22T06:42:30.261Z,83.02
2022-08-22T06:45:07.609Z,83.02
2022-08-22T06:47:43.646Z,83.41
2022-08-22T06:50:26.511Z,83.51
2022-08-22T06:53:03.766Z,83.44
2022-08-22T06:55:37.114Z,83.50
2022-08-22T06:58:15.508Z,83.94
2022-08-22T07:01:05.166Z,84.42
2022-08-22T07:03:41.463Z,84.74
2022-08-22T07:06:17.163Z,84.72
2022-08-22T07:08:47.565Z,84.82
2022-08-22T07:11:24.662Z,85.33
2022-08-22T07:14:01.922Z,86.13
2022-08-22T07:16:35.405Z,85.92
2022-08-22T07:22:17.835Z,86.35
2022-08-22T07:24:54.444Z,86.01
2022-08-22T07:27:48.821Z,86.20
2022-08-22T07:30:27.422Z,86.09
2022-08-22T07:33:26.726Z,86.57
2022-08-22T07:36:00.281Z,86.11
2022-08-22T07:38:43.094Z,86.33
2022-08-22T07:41:20.118Z,85.97
2022-08-22T07:43:54.645Z,85.35
2022-08-22T07:46:33.113Z,85.77
2022-08-22T07:49:15.392Z,85.09
2022-08-22T07:51:49.765Z,85.18
2022-08-22T07:54:26.527Z,84.02
2022-08-22T07:57:02.676Z,83.88
2022-08-22T07:59:38.569Z,83.51
2022-08-22T08:02:13.554Z,81.73
2022-08-22T08:04:43.788Z,81.50
2022-08-22T08:07:17.970Z,81.39
2022-08-22T08:09:54.786Z,80.39
2022-08-22T08:12:43.291Z,81.17
2022-08-22T08:15:26.055Z,80.41
2022-08-22T08:18:02.002Z,79.57
2022-08-22T08:20:33.906Z,79.12
2022-08-22T08:23:05.255Z,79.19
2022-08-22T08:25:53.475Z,79.09
2022-08-22T08:28:34.747Z,79.20
2022-08-22T08:31:15.367Z,79.35
2022-08-22T08:33:50.016Z,78.84
2022-08-22T08:36:38.834Z,78.31
2022-08-22T08:39:21.023Z,78.55
2022-08-22T08:43:15.131Z,78.30
2022-08-22T08:46:26.259Z,74.51
2022-08-22T08:49:24.129Z,72.71
2022-08-22T08:52:29.304Z,73.04
2022-08-22T08:55:22.459Z,69.98
2022-08-22T08:58:43.392Z,71.03
2022-08-22T09:01:40.049Z,67.99
2022-08-22T09:04:56.862Z,68.06
2022-08-22T09:08:02.174Z,68.30
2022-08-22T09:11:02.949Z,65.97
2022-08-22T09:14:00.507Z,65.74
2022-08-22T09:17:10.179Z,66.50
2022-08-22T09:20:21.470Z,66.13
2022-08-22T09:23:54.067Z,63.96
2022-08-22T09:26:32.234Z,65.32
2022-08-22T09:29:29.034Z,65.27
2022-08-22T09:32:13.543Z,64.79
2022-08-22T09:35:12.526Z,66.15
2022-08-22T09:38:00.637Z,65.62
2022-08-22T09:40:37.619Z,64.47
2022-08-22T09:43:11.898Z,66.34
2022-08-22T09:46:03.869Z,66.73
2022-08-22T09:48:46.386Z,66.13
2022-08-22T09:51:33.357Z,63.87
2022-08-22T09:54:31.081Z,62.61
2022-08-22T09:57:30.838Z,63.04
2022-08-22T10:00:26.338Z,62.02
2022-08-22T10:03:13.741Z,61.88
2022-08-22T10:05:53.595Z,60.28
2022-08-22T10:08:47.297Z,59.28
2022-08-22T10:11:29.278Z,59.86
2022-08-22T10:14:08.102Z,60.31
2022-08-22T10:17:01.889Z,59.94
2022-08-22T10:19:40.927Z,59.36
2022-08-22T10:22:44.452Z,61.23
2022-08-22T10:25:35.822Z,57.68
2022-08-22T10:28:33.444Z,56.49
2022-08-22T10:31:26.335Z,57.00
2022-08-22T10:34:11.010Z,56.48
2022-08-22T10:36:56.284Z,52.66
2022-08-22T10:39:38.757Z,54.81
2022-08-22T10:42:31.197Z,53.09
2022-08-22T10:45:36.783Z,51.98
2022-08-22T10:48:33.700Z,50.17
2022-08-22T10:51:34.389Z,49.09
2022-08-22T10:54:40.709Z,49.99
2022-08-22T10:57:52.564Z,46.62
2022-08-22T11:00:46.237Z,51.04
2022-08-22T11:03:27.600Z,49.49
2022-08-22T11:06:02.949Z,49.07
2022-08-22T11:09:01.435Z,50.14
2022-08-22T11:11:47.548Z,50.50
2022-08-22T11:14:59.723Z,52.63
2022-08-22T11:18:21.820Z,50.29
2022-08-22T11:21:04.854Z,50.86
2022-08-22T11:23:50.259Z,51.01
2022-08-22T11:26:47.328Z,51.61
2022-08-22T11:29:51.200Z,51.00
2022-08-22T11:32:36.059Z,50.48
2022-08-22T11:35:18.018Z,52.40
2022-08-22T11:37:57.074Z,53.86
2022-08-22T11:40:38.810Z,52.47
2022-08-22T11:43:38.389Z,52.32
2022-08-22T11:46:24.276Z,52.51
2022-08-22T11:49:28.017Z,53.14
2022-08-22T11:52:54.211Z,54.35
2022-08-22T11:55:34.491Z,53.52
2022-08-22T11:58:29.198Z,52.01
2022-08-22T12:01:04.424Z,52.48
2022-08-22T12:04:05.517Z,53.16
2022-08-22T12:07:13.769Z,51.84
2022-08-22T12:09:55.192Z,51.32
2022-08-22T12:12:52.779Z,53.74
2022-08-22T12:15:28.991Z,51.43
2022-08-22T12:18:53.034Z,50.92
2022-08-22T12:22:12.052Z,51.91
2022-08-22T12:25:04.402Z,51.46
2022-08-22T12:28:11.464Z,51.48
2022-08-22T12:30:56.664Z,50.21
2022-08-22T12:34:07.492Z,52.16
2022-08-22T12:37:12.080Z,51.90
2022-08-22T12:40:39.190Z,50.36
2022-08-22T12:43:46.016Z,49.22
2022-08-22T12:46:35.552Z,49.97
2022-08-22T12:49:34.046Z,48.30
2022-08-22T12:52:25.148Z,48.94
2022-08-22T12:55:42.236Z,49.62
2022-08-22T12:58:24.132Z,49.87
2022-08-22T13:00:54.129Z,51.72
2022-08-22T13:03:32.621Z,51.07
2022-08-22T13:06:27.305Z,51.26
2022-08-22T13:08:56.783Z,49.38
2022-08-22T13:11:26.742Z,51.74
2022-08-22T13:14:01.554Z,51.27
2022-08-22T13:16:48.846Z,50.98
2022-08-22T13:19:24.101Z,50.58
2022-08-22T13:22:01.545Z,49.53
2022-08-22T13:24:51.971Z,51.33
2022-08-22T13:27:29.821Z,52.34
2022-08-22T13:30:03.188Z,50.97
2022-08-22T13:32:44.469Z,51.55
2022-08-22T13:35:24.619Z,52.79
2022-08-22T13:38:06.857Z,52.76
2022-08-22T13:40:37.708Z,53.27
2022-08-22T13:43:11.809Z,53.21
2022-08-22T13:45:51.506Z,53.35
2022-08-22T13:48:28.626Z,52.83
2022-08-22T13:51:11.019Z,52.99
2022-08-22T13:53:49.880Z,53.02
2022-08-22T13:56:43.510Z,53.24
2022-08-22T13:59:50.046Z,52.22
2022-08-22T14:02:38.195Z,53.78
2022-08-22T14:05:21.590Z,54.41
2022-08-22T14:08:12.799Z,54.10
2022-08-22T14:10:55.215Z,54.08
2022-08-22T14:13:45.380Z,51.85
2022-08-22T14:16:25.438Z,53.16
2022-08-22T14:18:59.144Z,51.00
2022-08-22T14:21:43.832Z,51.59
2022-08-22T14:24:25.762Z,51.45
2022-08-22T14:27:05.636Z,52.61
2022-08-22T14:29:45.327Z,52.76
2022-08-22T14:32:41.980Z,54.37
2022-08-22T14:35:25.518Z,52.58
2022-08-22T14:38:17.465Z,53.03
2022-08-22T14:40:54.179Z,53.92
2022-08-22T14:43:49.372Z,53.16
2022-08-22T14:46:27.026Z,54.28
2022-08-22T14:49:28.950Z,54.04
2022-08-22T14:52:10.230Z,54.96
2022-08-22T14:54:48.686Z,55.21
2022-08-22T14:57:20.823Z,54.91
2022-08-22T14:59:54.288Z,54.80
2022-08-22T15:02:30.729Z,54.77
2022-08-22T15:05:13.290Z,53.49
2022-08-22T15:07:42.201Z,53.97
2022-08-22T15:10:24.031Z,51.41
2022-08-22T15:12:57.272Z,52.50
2022-08-22T15:15:41.091Z,53.08
2022-08-22T15:18:37.343Z,52.65
2022-08-22T15:21:12.393Z,53.83
2022-08-22T15:23:46.728Z,54.36
2022-08-22T15:26:26.901Z,54.30
2022-08-22T15:29:09.630Z,54.58
2022-08-22T15:31:46.734Z,56.30
2022-08-22T15:34:25.670Z,55.24
2022-08-22T15:37:08.456Z,55.35
2022-08-22T15:40:08.475Z,56.03
2022-08-22T15:42:46.959Z,54.22
2022-08-22T15:45:39.060Z,54.44
2022-08-22T15:48:29.085Z,55.08
2022-08-22T15:51:02.647Z,53.74
2022-08-22T15:53:54.372Z,54.22
2022-08-22T15:56:30.506Z,54.84
2022-08-22T15:59:53.518Z,55.31
2022-08-22T16:02:35.084Z,55.32
2022-08-22T16:05:30.672Z,54.94
2022-08-22T16:08:07.643Z,55.76
2022-08-22T16:10:41.828Z,56.05
2022-08-22T16:13:41.955Z,56.12
2022-08-22T16:16:29.805Z,57.17
2022-08-22T16:19:20.402Z,56.41
2022-08-22T16:22:14.497Z,55.31
2022-08-22T16:25:10.702Z,54.41
2022-08-22T16:27:55.935Z,56.04
2022-08-22T16:30:39.314Z,56.84
2022-08-22T16:33:17.865Z,56.42
2022-08-22T16:36:39.043Z,57.47
2022-08-22T16:39:34.178Z,60.31
2022-08-22T16:42:36.225Z,58.74
2022-08-22T16:45:23.278Z,59.76
2022-08-22T16:47:58.593Z,60.24
2022-08-22T16:50:41.124Z,60.34
2022-08-22T16:53:59.594Z,58.91
2022-08-22T16:56:43.589Z,60.07
2022-08-22T16:59:42.261Z,60.58
2022-08-22T17:02:38.513Z,59.73
2022-08-22T17:05:30.797Z,59.74
2022-08-22T17:08:26.259Z,59.84
2022-08-22T17:11:12.454Z,58.92
2022-08-22T17:14:17.559Z,60.09
2022-08-22T17:17:12.438Z,60.12
2022-08-22T17:20:03.091Z,60.93
2022-08-22T17:22:58.269Z,61.45
2022-08-22T17:25:37.961Z,61.97
2022-08-22T17:28:36.853Z,60.41
2022-08-22T17:31:18.520Z,60.58
2022-08-22T17:34:07.322Z,61.85
2022-08-22T17:36:57.221Z,61.08
2022-08-22T17:40:04.199Z,61.78
2022-08-22T17:43:03.658Z,60.86
2022-08-22T17:45:50.710Z,61.70
2022-08-22T17:48:33.950Z,61.79
2022-08-22T17:51:28.328Z,60.77
2022-08-22T17:54:13.997Z,60.92
2022-08-22T17:57:05.547Z,61.16
2022-08-22T17:59:49.619Z,61.53
2022-08-22T18:02:27.477Z,61.62
2022-08-22T18:05:11.731Z,61.40
2022-08-22T18:07:54.392Z,61.70
2022-08-22T18:10:40.329Z,61.69
2022-08-22T18:13:20.429Z,62.38
2022-08-22T18:15:56.145Z,63.65
2022-08-22T18:18:34.573Z,64.61
2022-08-22T18:21:15.329Z,65.16
2022-08-22T18:23:51.773Z,64.60
2022-08-22T18:26:31.962Z,64.99
2022-08-22T18:29:12.710Z,64.21
2022-08-22T18:31:53.245Z,64.89
2022-08-22T18:34:32.974Z,65.73
2022-08-22T18:37:19.729Z,65.96
2022-08-22T18:40:00.014Z,66.43
2022-08-22T18:42:38.230Z,67.39
2022-08-22T18:45:08.115Z,67.03
2022-08-22T18:47:37.301Z,66.35
2022-08-22T18:50:32.178Z,66.43
2022-08-22T18:53:02.748Z,66.26
2022-08-22T18:55:57.239Z,66.57
2022-08-22T18:58:52.517Z,66.91
2022-08-22T19:01:52.623Z,67.17
2022-08-22T19:04:54.061Z,67.81
2022-08-22T19:07:48.144Z,67.86
2022-08-22T19:10:54.983Z,67.46
2022-08-22T19:13:48.548Z,67.98
2022-08-22T19:16:50.963Z,68.35
2022-08-22T19:19:55.936Z,68.25
2022-08-22T19:22:29.347Z,69.17
2022-08-22T19:25:21.178Z,69.37
2022-08-22T19:28:26.895Z,69.68
2022-08-22T19:31:23.831Z,69.41
2022-08-22T19:34:34.972Z,69.70
2022-08-22T19:37:33.937Z,70.19
2022-08-22T19:40:10.866Z,70.17
2022-08-22T19:42:44.122Z,69.73
2022-08-22T19:45:29.019Z,69.19
2022-08-22T19:48:11.778Z,68.56
2022-08-22T19:50:44.547Z,68.94
2022-08-22T19:53:39.487Z,69.38
2022-08-22T19:56:24.592Z,69.26
2022-08-22T19:59:13.873Z,69.49
2022-08-22T20:02:03.365Z,69.73
2022-08-22T20:05:03.988Z,70.01
2022-08-22T20:07:51.404Z,70.16
2022-08-22T20:10:34.622Z,69.81
2022-08-22T20:13:10.104Z,70.64
2022-08-22T20:16:08.811Z,71.44
2022-08-22T20:19:18.613Z,73.31
2022-08-22T20:22:00.006Z,72.54
2022-08-22T20:24:40.282Z,73.13
2022-08-22T20:27:16.429Z,73.20
2022-08-22T20:29:56.638Z,73.33
2022-08-22T20:32:27.173Z,72.79
2022-08-22T20:35:03.042Z,73.11
2022-08-22T20:38:05.862Z,73.51
2022-08-22T20:40:55.705Z,73.55
2022-08-22T20:43:35.486Z,74.08
2022-08-22T20:46:26.132Z,74.31
2022-08-22T20:48:57.471Z,74.59
2022-08-22T20:51:31.638Z,75.61
2022-08-22T20:54:10.159Z,76.23
2022-08-22T20:56:53.604Z,75.31
2022-08-22T20:59:39.918Z,76.01
2022-08-22T21:02:16.165Z,75.69
2022-08-22T21:04:53.300Z,76.19
2022-08-22T21:07:28.464Z,76.20
2022-08-22T21:10:22.617Z,76.74
2022-08-22T21:13:09.681Z,76.41
2022-08-22T21:15:43.575Z,76.92
2022-08-22T21:18:15.072Z,77.03
2022-08-22T21:20:43.782Z,77.42
2022-08-22T21:23:17.225Z,77.50
2022-08-22T21:25:57.060Z,78.15
2022-08-22T21:28:33.250Z,78.40
2022-08-22T21:31:12.428Z,78.36
2022-08-22T21:33:48.596Z,79.25
2022-08-22T21:36:21.562Z,79.24
2022-08-22T21:38:57.047Z,79.30
2022-08-22T21:41:29.344Z,79.91
2022-08-22T21:44:17.653Z,80.72
2022-08-22T21:46:46.809Z,80.56
2022-08-22T21:49:24.338Z,80.26
2022-08-22T21:51:54.120Z,80.91
2022-08-22T21:54:40.088Z,80.66
2022-08-22T21:57:36.928Z,80.89
2022-08-22T22:00:29.384Z,80.93
2022-08-22T22:03:02.857Z,81.24
2022-08-22T22:05:31.967Z,81.31
2022-08-22T22:08:00.972Z,81.56
2022-08-22T22:10:31.370Z,81.75
2022-08-22T22:13:00.318Z,81.20
2022-08-22T22:15:34.906Z,81.51
2022-08-22T22:18:03.776Z,81.25
2022-08-22T22:20:33.021Z,81.38
2022-08-22T22:23:01.787Z,82.04
2022-08-22T22:25:40.155Z,82.10
2022-08-22T22:28:16.192Z,81.76
2022-08-22T22:30:50.489Z,81.97
2022-08-22T22:33:19.822Z,82.52
2022-08-22T22:35:50.795Z,82.36
2022-08-22T22:38:23.929Z,82.19
2022-08-22T22:40:54.789Z,82.14
2022-08-22T22:43:23.661Z,82.37
2022-08-22T22:45:52.630Z,82.87
2022-08-22T22:48:24.448Z,82.47
2022-08-22T22:50:55.126Z,83.00
2022-08-22T22:53:33.609Z,82.92
2022-08-22T22:56:13.561Z,83.48
2022-08-22T22:58:42.847Z,83.86
2022-08-22T23:01:13.609Z,83.74
2022-08-22T23:03:43.089Z,83.23
2022-08-22T23:06:13.864Z,83.83
2022-08-22T23:08:42.683Z,84.10
2022-08-22T23:11:19.170Z,84.02
2022-08-22T23:13:49.261Z,83.99
2022-08-22T23:16:23.365Z,84.11
2022-08-22T23:18:52.165Z,84.17
2022-08-22T23:21:25.570Z,83.93
2022-08-22T23:23:57.729Z,84.35
2022-08-22T23:26:28.898Z,84.08
2022-08-22T23:28:58.752Z,84.44
2022-08-22T23:31:33.907Z,84.75
2022-08-22T23:34:07.189Z,84.56
2022-08-22T23:36:36.434Z,84.57
2022-08-22T23:39:06.580Z,84.74
2022-08-22T23:41:37.767Z,85.20
2022-08-22T23:44:13.618Z,85.17
2022-08-22T23:46:44.613Z,85.98
2022-08-22T23:49:14.926Z,85.61
2022-08-22T23:51:44.362Z,85.88
2022-08-22T23:54:14.282Z,85.52
2022-08-22T23:56:47.464Z,85.47
2022-08-22T23:59:20.273Z,85.42
